<?xml version="1.0" encoding="UTF-8" standalone="no" ?>
<gpx xmlns="http://www.topografix.com/GPX/1/1" xmlns:xsi="http://www.w3.org/2001/XMLSchema-instance" xsi:schemaLocation="http://www.topografix.com/GPX/1/1 http://www.topografix.com/GPX/1/1/gpx.xsd" version="1.1" creator="VisuGPX - https://www.visugpx.com">
  <metadata>
    <name>9966498-Site VTT gévaudan - Moulinet 1</name>
  </metadata>
  <trk>
    <name><![CDATA[9966498-Site VTT gévaudan - Moulinet 1]]></name>
    <trkseg>
      <trkpt lat="44.64373" lon="3.23573">
        <ele>1081</ele>
        <time>2019-06-13T12:53:53Z</time>
      </trkpt>
      <trkpt lat="44.64374" lon="3.23541">
        <ele>1081</ele>
        <time>2019-06-13T12:53:58Z</time>
      </trkpt>
      <trkpt lat="44.64364" lon="3.23497">
        <ele>1081</ele>
        <time>2019-06-13T12:54:06Z</time>
      </trkpt>
      <trkpt lat="44.64357" lon="3.23455">
        <ele>1082</ele>
        <time>2019-06-13T12:54:13Z</time>
      </trkpt>
      <trkpt lat="44.6436" lon="3.23407">
        <ele>1084</ele>
        <time>2019-06-13T12:54:21Z</time>
      </trkpt>
      <trkpt lat="44.64373" lon="3.23347">
        <ele>1086</ele>
        <time>2019-06-13T12:54:32Z</time>
      </trkpt>
      <trkpt lat="44.64365" lon="3.23306">
        <ele>1085</ele>
        <time>2019-06-13T12:54:39Z</time>
      </trkpt>
      <trkpt lat="44.64348" lon="3.23267">
        <ele>1082</ele>
        <time>2019-06-13T12:54:46Z</time>
      </trkpt>
      <trkpt lat="44.64354" lon="3.23215">
        <ele>1083</ele>
        <time>2019-06-13T12:54:55Z</time>
      </trkpt>
      <trkpt lat="44.6435" lon="3.23149">
        <ele>1081</ele>
        <time>2019-06-13T12:55:06Z</time>
      </trkpt>
      <trkpt lat="44.64357" lon="3.23101">
        <ele>1080</ele>
        <time>2019-06-13T12:55:14Z</time>
      </trkpt>
      <trkpt lat="44.64378" lon="3.23068">
        <ele>1079</ele>
        <time>2019-06-13T12:55:22Z</time>
      </trkpt>
      <trkpt lat="44.6442" lon="3.23071">
        <ele>1081</ele>
        <time>2019-06-13T12:55:31Z</time>
      </trkpt>
      <trkpt lat="44.64481" lon="3.2309">
        <ele>1082</ele>
        <time>2019-06-13T12:55:46Z</time>
      </trkpt>
      <trkpt lat="44.64526" lon="3.23117">
        <ele>1084</ele>
        <time>2019-06-13T12:55:57Z</time>
      </trkpt>
      <trkpt lat="44.64566" lon="3.23144">
        <ele>1085</ele>
        <time>2019-06-13T12:56:08Z</time>
      </trkpt>
      <trkpt lat="44.6462" lon="3.23138">
        <ele>1087</ele>
        <time>2019-06-13T12:56:20Z</time>
      </trkpt>
      <trkpt lat="44.64686" lon="3.23124">
        <ele>1092</ele>
        <time>2019-06-13T12:56:36Z</time>
      </trkpt>
      <trkpt lat="44.6478" lon="3.23117">
        <ele>1095</ele>
        <time>2019-06-13T12:56:58Z</time>
      </trkpt>
      <trkpt lat="44.64826" lon="3.23118">
        <ele>1096</ele>
        <time>2019-06-13T12:57:09Z</time>
      </trkpt>
      <trkpt lat="44.64934" lon="3.23057">
        <ele>1100</ele>
        <time>2019-06-13T12:57:36Z</time>
      </trkpt>
      <trkpt lat="44.65006" lon="3.23018">
        <ele>1102</ele>
        <time>2019-06-13T12:57:54Z</time>
      </trkpt>
      <trkpt lat="44.65096" lon="3.22963">
        <ele>1108</ele>
        <time>2019-06-13T12:58:17Z</time>
      </trkpt>
      <trkpt lat="44.65165" lon="3.22913">
        <ele>1113</ele>
        <time>2019-06-13T12:58:35Z</time>
      </trkpt>
      <trkpt lat="44.65229" lon="3.22876">
        <ele>1114</ele>
        <time>2019-06-13T12:58:51Z</time>
      </trkpt>
      <trkpt lat="44.65303" lon="3.22844">
        <ele>1120</ele>
        <time>2019-06-13T12:59:09Z</time>
      </trkpt>
      <trkpt lat="44.65325" lon="3.2277">
        <ele>1117</ele>
        <time>2019-06-13T12:59:22Z</time>
      </trkpt>
      <trkpt lat="44.65341" lon="3.2273">
        <ele>1117</ele>
        <time>2019-06-13T12:59:30Z</time>
      </trkpt>
      <trkpt lat="44.65369" lon="3.22697">
        <ele>1119</ele>
        <time>2019-06-13T12:59:39Z</time>
      </trkpt>
      <trkpt lat="44.65382" lon="3.22624">
        <ele>1117</ele>
        <time>2019-06-13T12:59:51Z</time>
      </trkpt>
      <trkpt lat="44.65419" lon="3.22598">
        <ele>1118</ele>
        <time>2019-06-13T13:00:01Z</time>
      </trkpt>
      <trkpt lat="44.65406" lon="3.2265">
        <ele>1120</ele>
        <time>2019-06-13T13:00:10Z</time>
      </trkpt>
      <trkpt lat="44.65441" lon="3.22681">
        <ele>1126</ele>
        <time>2019-06-13T13:00:20Z</time>
      </trkpt>
      <trkpt lat="44.65509" lon="3.22737">
        <ele>1137</ele>
        <time>2019-06-13T13:00:38Z</time>
      </trkpt>
      <trkpt lat="44.65567" lon="3.22796">
        <ele>1138</ele>
        <time>2019-06-13T13:00:55Z</time>
      </trkpt>
      <trkpt lat="44.65611" lon="3.22873">
        <ele>1134</ele>
        <time>2019-06-13T13:01:11Z</time>
      </trkpt>
      <trkpt lat="44.65683" lon="3.23001">
        <ele>1134</ele>
        <time>2019-06-13T13:01:38Z</time>
      </trkpt>
      <trkpt lat="44.65792" lon="3.22862">
        <ele>1135</ele>
        <time>2019-06-13T13:02:13Z</time>
      </trkpt>
      <trkpt lat="44.6588" lon="3.22808">
        <ele>1136</ele>
        <time>2019-06-13T13:02:35Z</time>
      </trkpt>
      <trkpt lat="44.6592" lon="3.2276">
        <ele>1136</ele>
        <time>2019-06-13T13:02:47Z</time>
      </trkpt>
      <trkpt lat="44.6599" lon="3.22613">
        <ele>1133</ele>
        <time>2019-06-13T13:03:17Z</time>
      </trkpt>
      <trkpt lat="44.66019" lon="3.22563">
        <ele>1134</ele>
        <time>2019-06-13T13:03:27Z</time>
      </trkpt>
      <trkpt lat="44.66045" lon="3.22474">
        <ele>1137</ele>
        <time>2019-06-13T13:03:43Z</time>
      </trkpt>
      <trkpt lat="44.66115" lon="3.22339">
        <ele>1137</ele>
        <time>2019-06-13T13:04:11Z</time>
      </trkpt>
      <trkpt lat="44.66183" lon="3.22198">
        <ele>1139</ele>
        <time>2019-06-13T13:04:39Z</time>
      </trkpt>
      <trkpt lat="44.66227" lon="3.22071">
        <ele>1139</ele>
        <time>2019-06-13T13:05:03Z</time>
      </trkpt>
      <trkpt lat="44.66263" lon="3.21905">
        <ele>1137</ele>
        <time>2019-06-13T13:05:32Z</time>
      </trkpt>
      <trkpt lat="44.66294" lon="3.21808">
        <ele>1142</ele>
        <time>2019-06-13T13:05:49Z</time>
      </trkpt>
      <trkpt lat="44.66316" lon="3.21754">
        <ele>1143</ele>
        <time>2019-06-13T13:06:00Z</time>
      </trkpt>
      <trkpt lat="44.66391" lon="3.21704">
        <ele>1147</ele>
        <time>2019-06-13T13:06:19Z</time>
      </trkpt>
      <trkpt lat="44.66459" lon="3.21676">
        <ele>1149</ele>
        <time>2019-06-13T13:06:36Z</time>
      </trkpt>
      <trkpt lat="44.66449" lon="3.21772">
        <ele>1149</ele>
        <time>2019-06-13T13:06:52Z</time>
      </trkpt>
      <trkpt lat="44.66437" lon="3.21871">
        <ele>1150</ele>
        <time>2019-06-13T13:07:08Z</time>
      </trkpt>
      <trkpt lat="44.66437" lon="3.21954">
        <ele>1147</ele>
        <time>2019-06-13T13:07:22Z</time>
      </trkpt>
      <trkpt lat="44.66437" lon="3.22095">
        <ele>1137</ele>
        <time>2019-06-13T13:07:46Z</time>
      </trkpt>
      <trkpt lat="44.6646" lon="3.22212">
        <ele>1132</ele>
        <time>2019-06-13T13:08:06Z</time>
      </trkpt>
      <trkpt lat="44.66524" lon="3.22327">
        <ele>1133</ele>
        <time>2019-06-13T13:08:30Z</time>
      </trkpt>
      <trkpt lat="44.66572" lon="3.22405">
        <ele>1130</ele>
        <time>2019-06-13T13:08:47Z</time>
      </trkpt>
      <trkpt lat="44.66648" lon="3.22476">
        <ele>1123</ele>
        <time>2019-06-13T13:09:09Z</time>
      </trkpt>
      <trkpt lat="44.66712" lon="3.22499">
        <ele>1127</ele>
        <time>2019-06-13T13:09:24Z</time>
      </trkpt>
      <trkpt lat="44.66807" lon="3.2247">
        <ele>1133</ele>
        <time>2019-06-13T13:09:47Z</time>
      </trkpt>
      <trkpt lat="44.66885" lon="3.225">
        <ele>1140</ele>
        <time>2019-06-13T13:10:06Z</time>
      </trkpt>
      <trkpt lat="44.66969" lon="3.2261">
        <ele>1139</ele>
        <time>2019-06-13T13:10:32Z</time>
      </trkpt>
      <trkpt lat="44.6686" lon="3.22798">
        <ele>1130</ele>
        <time>2019-06-13T13:11:13Z</time>
      </trkpt>
      <trkpt lat="44.66782" lon="3.23044">
        <ele>1125</ele>
        <time>2019-06-13T13:11:57Z</time>
      </trkpt>
      <trkpt lat="44.66788" lon="3.23189">
        <ele>1119</ele>
        <time>2019-06-13T13:12:22Z</time>
      </trkpt>
      <trkpt lat="44.66729" lon="3.23303">
        <ele>1112</ele>
        <time>2019-06-13T13:12:45Z</time>
      </trkpt>
      <trkpt lat="44.66666" lon="3.2337">
        <ele>1105</ele>
        <time>2019-06-13T13:13:03Z</time>
      </trkpt>
      <trkpt lat="44.66622" lon="3.23418">
        <ele>1101</ele>
        <time>2019-06-13T13:13:16Z</time>
      </trkpt>
      <trkpt lat="44.66565" lon="3.23452">
        <ele>1100</ele>
        <time>2019-06-13T13:13:31Z</time>
      </trkpt>
      <trkpt lat="44.66489" lon="3.23428">
        <ele>1095</ele>
        <time>2019-06-13T13:13:49Z</time>
      </trkpt>
      <trkpt lat="44.6645" lon="3.23434">
        <ele>1092</ele>
        <time>2019-06-13T13:13:58Z</time>
      </trkpt>
      <trkpt lat="44.66385" lon="3.23553">
        <ele>1093</ele>
        <time>2019-06-13T13:14:23Z</time>
      </trkpt>
      <trkpt lat="44.66332" lon="3.23605">
        <ele>1089</ele>
        <time>2019-06-13T13:14:38Z</time>
      </trkpt>
      <trkpt lat="44.66304" lon="3.23658">
        <ele>1087</ele>
        <time>2019-06-13T13:14:49Z</time>
      </trkpt>
      <trkpt lat="44.66295" lon="3.23726">
        <ele>1086</ele>
        <time>2019-06-13T13:15:01Z</time>
      </trkpt>
      <trkpt lat="44.66233" lon="3.23788">
        <ele>1085</ele>
        <time>2019-06-13T13:15:18Z</time>
      </trkpt>
      <trkpt lat="44.66192" lon="3.23778">
        <ele>1089</ele>
        <time>2019-06-13T13:15:28Z</time>
      </trkpt>
      <trkpt lat="44.66166" lon="3.23817">
        <ele>1088</ele>
        <time>2019-06-13T13:15:37Z</time>
      </trkpt>
      <trkpt lat="44.66142" lon="3.23969">
        <ele>1081</ele>
        <time>2019-06-13T13:16:03Z</time>
      </trkpt>
      <trkpt lat="44.66122" lon="3.24052">
        <ele>1079</ele>
        <time>2019-06-13T13:16:17Z</time>
      </trkpt>
      <trkpt lat="44.66069" lon="3.24107">
        <ele>1079</ele>
        <time>2019-06-13T13:16:33Z</time>
      </trkpt>
      <trkpt lat="44.6604" lon="3.24152">
        <ele>1078</ele>
        <time>2019-06-13T13:16:43Z</time>
      </trkpt>
      <trkpt lat="44.65973" lon="3.2419">
        <ele>1079</ele>
        <time>2019-06-13T13:17:00Z</time>
      </trkpt>
      <trkpt lat="44.6595" lon="3.243">
        <ele>1079</ele>
        <time>2019-06-13T13:17:19Z</time>
      </trkpt>
      <trkpt lat="44.65929" lon="3.24389">
        <ele>1081</ele>
        <time>2019-06-13T13:17:34Z</time>
      </trkpt>
      <trkpt lat="44.65931" lon="3.24436">
        <ele>1083</ele>
        <time>2019-06-13T13:17:42Z</time>
      </trkpt>
      <trkpt lat="44.65966" lon="3.2446">
        <ele>1084</ele>
        <time>2019-06-13T13:17:51Z</time>
      </trkpt>
      <trkpt lat="44.66009" lon="3.24533">
        <ele>1081</ele>
        <time>2019-06-13T13:18:07Z</time>
      </trkpt>
      <trkpt lat="44.66026" lon="3.24582">
        <ele>1076</ele>
        <time>2019-06-13T13:18:16Z</time>
      </trkpt>
      <trkpt lat="44.66063" lon="3.24632">
        <ele>1076</ele>
        <time>2019-06-13T13:18:28Z</time>
      </trkpt>
      <trkpt lat="44.6596" lon="3.24577">
        <ele>1082</ele>
        <time>2019-06-13T13:18:54Z</time>
      </trkpt>
      <trkpt lat="44.65906" lon="3.24479">
        <ele>1085</ele>
        <time>2019-06-13T13:19:14Z</time>
      </trkpt>
      <trkpt lat="44.65874" lon="3.24388">
        <ele>1086</ele>
        <time>2019-06-13T13:19:31Z</time>
      </trkpt>
      <trkpt lat="44.65856" lon="3.24317">
        <ele>1083</ele>
        <time>2019-06-13T13:19:44Z</time>
      </trkpt>
      <trkpt lat="44.65827" lon="3.24276">
        <ele>1082</ele>
        <time>2019-06-13T13:19:53Z</time>
      </trkpt>
      <trkpt lat="44.65775" lon="3.24259">
        <ele>1085</ele>
        <time>2019-06-13T13:20:06Z</time>
      </trkpt>
      <trkpt lat="44.65695" lon="3.24289">
        <ele>1094</ele>
        <time>2019-06-13T13:20:25Z</time>
      </trkpt>
      <trkpt lat="44.65661" lon="3.24282">
        <ele>1097</ele>
        <time>2019-06-13T13:20:33Z</time>
      </trkpt>
      <trkpt lat="44.65594" lon="3.24244">
        <ele>1106</ele>
        <time>2019-06-13T13:20:50Z</time>
      </trkpt>
      <trkpt lat="44.6554" lon="3.24171">
        <ele>1120</ele>
        <time>2019-06-13T13:21:08Z</time>
      </trkpt>
      <trkpt lat="44.65494" lon="3.24156">
        <ele>1126</ele>
        <time>2019-06-13T13:21:19Z</time>
      </trkpt>
      <trkpt lat="44.65449" lon="3.24166">
        <ele>1129</ele>
        <time>2019-06-13T13:21:29Z</time>
      </trkpt>
      <trkpt lat="44.65357" lon="3.24062">
        <ele>1143</ele>
        <time>2019-06-13T13:21:57Z</time>
      </trkpt>
      <trkpt lat="44.65321" lon="3.24028">
        <ele>1146</ele>
        <time>2019-06-13T13:22:07Z</time>
      </trkpt>
      <trkpt lat="44.65321" lon="3.23896">
        <ele>1142</ele>
        <time>2019-06-13T13:22:29Z</time>
      </trkpt>
      <trkpt lat="44.65322" lon="3.2384">
        <ele>1140</ele>
        <time>2019-06-13T13:22:38Z</time>
      </trkpt>
      <trkpt lat="44.65318" lon="3.23734">
        <ele>1140</ele>
        <time>2019-06-13T13:22:56Z</time>
      </trkpt>
      <trkpt lat="44.65278" lon="3.2378">
        <ele>1148</ele>
        <time>2019-06-13T13:23:08Z</time>
      </trkpt>
      <trkpt lat="44.65266" lon="3.23865">
        <ele>1151</ele>
        <time>2019-06-13T13:23:22Z</time>
      </trkpt>
      <trkpt lat="44.65254" lon="3.23937">
        <ele>1153</ele>
        <time>2019-06-13T13:23:35Z</time>
      </trkpt>
      <trkpt lat="44.65176" lon="3.24009">
        <ele>1159</ele>
        <time>2019-06-13T13:23:56Z</time>
      </trkpt>
      <trkpt lat="44.65073" lon="3.24075">
        <ele>1159</ele>
        <time>2019-06-13T13:24:23Z</time>
      </trkpt>
      <trkpt lat="44.65006" lon="3.24104">
        <ele>1152</ele>
        <time>2019-06-13T13:24:39Z</time>
      </trkpt>
      <trkpt lat="44.64906" lon="3.24182">
        <ele>1141</ele>
        <time>2019-06-13T13:25:06Z</time>
      </trkpt>
      <trkpt lat="44.64857" lon="3.23993">
        <ele>1130</ele>
        <time>2019-06-13T13:25:39Z</time>
      </trkpt>
      <trkpt lat="44.64803" lon="3.23843">
        <ele>1125</ele>
        <time>2019-06-13T13:26:07Z</time>
      </trkpt>
      <trkpt lat="44.64755" lon="3.23757">
        <ele>1114</ele>
        <time>2019-06-13T13:26:25Z</time>
      </trkpt>
      <trkpt lat="44.64676" lon="3.23679">
        <ele>1102</ele>
        <time>2019-06-13T13:26:48Z</time>
      </trkpt>
      <trkpt lat="44.64637" lon="3.23606">
        <ele>1099</ele>
        <time>2019-06-13T13:27:03Z</time>
      </trkpt>
      <trkpt lat="44.64583" lon="3.23505">
        <ele>1094</ele>
        <time>2019-06-13T13:27:24Z</time>
      </trkpt>
      <trkpt lat="44.64527" lon="3.23427">
        <ele>1092</ele>
        <time>2019-06-13T13:27:43Z</time>
      </trkpt>
      <trkpt lat="44.64495" lon="3.23358">
        <ele>1093</ele>
        <time>2019-06-13T13:27:56Z</time>
      </trkpt>
      <trkpt lat="44.64456" lon="3.23248">
        <ele>1091</ele>
        <time>2019-06-13T13:28:17Z</time>
      </trkpt>
      <trkpt lat="44.64428" lon="3.23339">
        <ele>1091</ele>
        <time>2019-06-13T13:28:33Z</time>
      </trkpt>
      <trkpt lat="44.64424" lon="3.23422">
        <ele>1091</ele>
        <time>2019-06-13T13:28:47Z</time>
      </trkpt>
      <trkpt lat="44.64425" lon="3.23458">
        <ele>1089</ele>
        <time>2019-06-13T13:28:53Z</time>
      </trkpt>
      <trkpt lat="44.64392" lon="3.23546">
        <ele>1082</ele>
        <time>2019-06-13T13:29:09Z</time>
      </trkpt>
    </trkseg>
  </trk>
</gpx>